Time;durP1;ratioP1;P1;durP2;ratioP2;P2;SDS_P1;SDS_P2;PMS_P1;PMS_P2;Temp;Humidity;BMP_temperature;BMP_pressure;BME280_temperature;BME280_humidity;BME280_pressure;Samples;Min_cycle;Max_cycle;Signal;HPM_P1;HPM_P2
2021/06/04 05:01:50;;;;;;;4.43;4.03;;;;;;;14.66;83.63;95525.38;5377603;23;20053;-65
2021/06/04 05:04:16;;;;;;;4.18;3.83;;;;;;;14.77;82.40;95528.34;4840557;29;20383;-65
2021/06/04 05:06:41;;;;;;;10.18;3.60;;;;;;;14.96;82.25;95526.94;4842371;29;20608;-65
2021/06/04 05:09:07;;;;;;;4.32;3.40;;;;;;;15.09;79.45;95524.50;4855804;29;20033;-64
2021/06/04 05:11:33;;;;;;;3.65;3.35;;;;;;;15.24;79.07;95524.47;4858838;29;20655;-65
2021/06/04 05:13:58;;;;;;;4.80;3.90;;;;;;;15.53;79.50;95528.81;4841221;29;20033;-65
2021/06/04 05:16:24;;;;;;;4.70;3.10;;;;;;;15.76;77.19;95526.81;4841674;29;20033;-65
2021/06/04 05:18:49;;;;;;;3.15;2.70;;;;;;;15.73;73.52;95527.97;4842033;29;20169;-64
2021/06/04 05:21:16;;;;;;;3.58;2.72;;;;;;;16.08;72.58;95530.66;4857142;29;20037;-64
2021/06/04 05:23:42;;;;;;;3.13;2.83;;;;;;;15.42;69.42;95527.44;4841903;29;20471;-64
2021/06/04 05:26:07;;;;;;;3.13;2.55;;;;;;;16.45;72.63;95539.94;4856867;29;20079;-64
2021/06/04 05:28:33;;;;;;;2.95;2.67;;;;;;;16.73;67.76;95530.28;4841991;29;20040;-65
2021/06/04 05:31:03;;;;;;;2.60;2.40;;;;;;;17.00;66.63;95529.41;4840434;29;20030;-65
2021/06/04 05:33:33;;;;;;;2.70;1.75;;;;;;;17.56;65.73;95539.66;4856859;29;20040;-65
2021/06/04 05:36:04;;;;;;;3.60;2.22;;;;;;;17.50;60.86;95537.81;4841720;29;20376;-65
2021/06/04 05:38:30;;;;;;;2.53;2.08;;;;;;;17.37;64.59;95539.38;4840688;29;20041;-65
2021/06/04 05:40:55;;;;;;;5.05;2.40;;;;;;;17.83;64.91;95533.44;4841825;29;20037;-65
2021/06/04 05:43:25;;;;;;;3.17;2.30;;;;;;;18.11;63.20;95534.03;4840204;29;20034;-65
2021/06/04 05:45:51;;;;;;;2.97;2.28;;;;;;;18.33;60.74;95537.25;4841840;29;20492;-65
2021/06/04 05:48:17;;;;;;;2.47;2.10;;;;;;;18.17;60.82;95537.69;4855651;29;20037;-65
2021/06/04 05:50:45;;;;;;;2.92;2.30;;;;;;;16.93;63.10;95541.66;4856890;29;20077;-65
2021/06/04 05:53:12;;;;;;;2.65;2.33;;;;;;;16.63;62.40;95545.53;4841514;29;20038;-65
2021/06/04 05:55:37;;;;;;;4.07;1.90;;;;;;;16.43;65.20;95549.81;4840155;29;20030;-66
2021/06/04 05:58:04;;;;;;;3.38;2.28;;;;;;;16.73;63.22;95552.00;4858297;29;20581;-66
2021/06/04 06:00:32;;;;;;;3.47;2.17;;;;;;;16.17;64.97;95555.66;4838660;29;20033;-65
2021/06/04 06:02:58;;;;;;;2.63;2.40;;;;;;;16.19;64.81;95562.31;4850780;29;20048;-65
2021/06/04 06:05:23;;;;;;;2.03;1.92;;;;;;;16.36;64.60;95552.38;4856305;29;20514;-65
2021/06/04 06:07:49;;;;;;;1.95;1.73;;;;;;;16.77;66.18;95560.28;4839131;29;20416;-65
2021/06/04 06:10:14;;;;;;;3.55;2.08;;;;;;;16.67;65.80;95552.78;4847839;29;20045;-65
2021/06/04 06:12:40;;;;;;;4.55;2.10;;;;;;;17.07;65.33;95561.66;4807255;29;20034;-65
2021/06/04 06:15:06;;;;;;;5.47;2.22;;;;;;;16.63;65.05;95562.00;4844167;29;20030;-65
2021/06/04 06:17:32;;;;;;;4.28;2.28;;;;;;;16.20;66.12;95563.13;4854833;29;20616;-65
2021/06/04 06:19:57;;;;;;;2.53;2.13;;;;;;;16.35;67.43;95561.22;4857932;29;20034;-64
2021/06/04 06:22:23;;;;;;;5.05;2.72;;;;;;;16.15;66.78;95568.91;4854750;29;20037;-64
2021/06/04 06:24:49;;;;;;;2.95;2.50;;;;;;;16.41;66.36;95562.28;4856431;29;20029;-65
2021/06/04 06:27:14;;;;;;;3.97;2.50;;;;;;;16.82;64.91;95563.94;4839458;29;20439;-65
2021/06/04 06:29:39;;;;;;;4.13;2.70;;;;;;;16.99;66.00;95571.44;4857135;29;20307;-65
2021/06/04 06:32:06;;;;;;;9.43;2.25;;;;;;;17.68;64.13;95566.88;4857202;29;20040;-66
2021/06/04 06:34:31;;;;;;;2.40;2.20;;;;;;;17.73;62.13;95556.59;4839811;29;20029;-64
2021/06/04 06:36:57;;;;;;;2.38;1.90;;;;;;;17.56;63.31;95563.25;4841275;29;20037;-66
2021/06/04 06:39:28;;;;;;;3.72;2.40;;;;;;;17.42;63.05;95562.38;4839318;29;20033;-65
2021/06/04 06:41:54;;;;;;;2.28;2.00;;;;;;;17.37;62.07;95559.50;4837427;29;20041;-65
2021/06/04 06:44:20;;;;;;;2.42;2.22;;;;;;;17.78;61.35;95559.44;4836937;29;20444;-66
2021/06/04 06:46:46;;;;;;;2.33;1.67;;;;;;;18.20;62.26;95555.63;4840255;29;20169;-66
2021/06/04 06:49:12;;;;;;;3.65;2.42;;;;;;;18.44;58.72;95553.19;4839135;29;20061;-66
2021/06/04 06:51:37;;;;;;;2.60;2.40;;;;;;;18.18;58.38;95550.56;4839204;29;20033;-65
2021/06/04 06:54:06;;;;;;;4.47;2.42;;;;;;;18.92;58.46;95550.25;4856393;29;20463;-65
2021/06/04 06:56:32;;;;;;;4.40;2.42;;;;;;;17.61;61.65;95547.72;4839123;29;20503;-67
2021/06/04 06:58:58;;;;;;;2.75;2.55;;;;;;;18.08;58.79;95551.97;4838693;29;20049;-66
2021/06/04 07:01:24;;;;;;;2.45;2.25;;;;;;;18.09;59.28;95554.41;4838054;29;20045;-65
2021/06/04 07:03:50;;;;;;;2.38;1.90;;;;;;;18.84;57.83;95543.44;4840512;29;20030;-65
2021/06/04 07:06:26;;;;;;;4.30;2.60;;;;;;;18.16;59.17;95549.97;4854705;29;20025;-66
2021/06/04 07:08:52;;;;;;;3.13;1.92;;;;;;;18.34;58.96;95552.78;4854671;29;20415;-65
2021/06/04 07:11:18;;;;;;;5.30;2.40;;;;;;;18.33;57.82;95556.41;4840190;29;20093;-66
2021/06/04 07:13:45;;;;;;;2.30;2.10;;;;;;;19.28;58.10;95560.22;4853912;29;20037;-65
2021/06/04 07:16:11;;;;;;;2.67;2.33;;;;;;;18.82;57.04;95560.38;4839735;29;20132;-66
2021/06/04 07:18:37;;;;;;;4.70;2.63;;;;;;;18.18;58.36;95562.88;4838864;29;20113;-64
2021/06/04 07:21:03;;;;;;;5.07;2.65;;;;;;;18.77;58.45;95561.03;4855614;29;20026;-65
2021/06/04 07:23:29;;;;;;;2.72;2.50;;;;;;;18.74;58.60;95563.25;4838851;29;20454;-66
2021/06/04 07:25:54;;;;;;;3.90;2.40;;;;;;;19.03;57.93;95552.25;4839961;29;20598;-65
2021/06/04 07:28:21;;;;;;;2.65;2.33;;;;;;;18.84;57.49;95558.38;4839580;29;20036;-66
2021/06/04 07:30:48;;;;;;;6.57;2.60;;;;;;;17.83;58.92;95555.22;4838341;29;20090;-66
2021/06/04 07:33:34;;;;;;;4.18;2.10;;;;;;;18.65;58.19;95560.03;4839721;29;20575;-67
2021/06/04 07:36:02;;;;;;;2.97;2.45;;;;;;;18.43;59.26;95556.81;4855618;29;20040;-66
2021/06/04 07:38:27;;;;;;;2.28;2.13;;;;;;;19.31;59.17;95565.06;4839797;29;20072;-66
2021/06/04 07:40:53;;;;;;;2.25;2.03;;;;;;;20.21;55.59;95562.09;4855823;29;20483;-65
2021/06/04 07:43:23;;;;;;;3.55;2.20;;;;;;;20.23;52.09;95564.47;4839419;29;20109;-66
2021/06/04 07:45:48;;;;;;;;;;;;;;;20.80;52.11;95556.31;4840421;29;20033;-66
2021/06/04 07:48:14;;;;;;;3.25;2.40;;;;;;;21.10;50.50;95559.00;4853684;29;20016;-65
2021/06/04 07:50:41;;;;;;;3.22;2.90;;;;;;;19.87;52.31;95560.69;4854966;29;20022;-65
2021/06/04 07:53:08;;;;;;;6.03;2.53;;;;;;;21.76;47.32;95555.53;4853817;29;20482;-67
2021/06/04 07:55:34;;;;;;;2.33;2.03;;;;;;;22.46;45.71;95559.13;4856009;29;20029;-66
2021/06/04 07:57:59;;;;;;;4.85;2.22;;;;;;;21.73;46.94;95555.97;4853704;29;20033;-66
2021/06/04 08:00:27;;;;;;;6.00;2.10;;;;;;;23.30;46.64;95555.13;4856034;29;20033;-64
2021/06/04 08:02:53;;;;;;;3.47;2.58;;;;;;;24.00;43.66;95553.81;4839271;29;20057;-65
2021/06/04 08:05:19;;;;;;;4.93;2.55;;;;;;;24.13;43.46;95558.03;4853993;29;20038;-65
2021/06/04 08:07:44;;;;;;;2.00;1.75;;;;;;;24.86;43.15;95549.88;4839487;29;20502;-65
2021/06/04 08:10:11;;;;;;;2.65;2.33;;;;;;;24.69;43.09;95554.41;4838142;29;20044;-66
2021/06/04 08:12:37;;;;;;;1.92;1.83;;;;;;;24.99;42.23;95556.69;4855044;29;20033;-65
2021/06/04 08:15:10;;;;;;;2.40;1.70;;;;;;;24.88;43.28;95565.56;4854827;29;20029;-67
2021/06/04 08:17:35;;;;;;;2.88;2.08;;;;;;;24.53;42.97;95558.66;4839705;29;20029;-65
2021/06/04 08:20:03;;;;;;;1.92;1.80;;;;;;;24.37;43.44;95561.34;4855340;29;20407;-66
2021/06/04 08:22:28;;;;;;;3.42;1.95;;;;;;;24.05;43.78;95561.03;4853791;29;20057;-69
2021/06/04 08:24:54;;;;;;;4.05;2.22;;;;;;;23.73;43.82;95567.91;4854901;29;20288;-66
2021/06/04 08:27:19;;;;;;;2.55;2.30;;;;;;;22.93;43.32;95557.28;4853320;29;20037;-64
2021/06/04 08:29:48;;;;;;;2.40;1.88;;;;;;;24.29;44.40;95557.22;4854762;29;20068;-66
2021/06/04 08:32:15;;;;;;;1.92;1.83;;;;;;;25.37;42.33;95559.28;4854479;29;20026;-67
2021/06/04 08:34:41;;;;;;;2.00;1.58;;;;;;;26.08;41.00;95565.34;4839293;29;20061;-67
2021/06/04 08:37:06;;;;;;;2.28;2.08;;;;;;;25.87;40.35;95560.91;4853950;29;20021;-66
2021/06/04 08:39:32;;;;;;;1.55;1.42;;;;;;;25.76;38.60;95552.03;4838488;29;20048;-67
2021/06/04 08:42:19;;;;;;;2.58;2.00;;;;;;;25.30;40.95;95552.56;4839141;29;20033;-64
2021/06/04 08:44:54;;;;;;;2.10;1.73;;;;;;;25.43;39.99;95558.28;4853202;29;20088;-66
2021/06/04 08:47:24;;;;;;;2.38;1.73;;;;;;;24.35;40.76;95543.03;4855007;29;20034;-66
2021/06/04 08:49:53;;;;;;;2.80;1.98;;;;;;;24.13;41.37;95555.38;4838093;29;20025;-66
2021/06/04 08:52:39;;;;;;;3.13;1.63;;;;;;;24.40;41.32;95551.03;4857987;29;20030;-66
2021/06/04 08:55:22;;;;;;;4.35;1.73;;;;;;;23.51;40.87;95549.22;4859095;29;20037;-67
2021/06/04 08:58:44;;;;;;;3.78;1.98;;;;;;;24.75;41.73;95547.31;4857484;29;20042;-66
2021/06/04 09:01:12;;;;;;;3.15;1.75;;;;;;;24.49;42.19;95535.56;4837190;29;20050;-66
2021/06/04 09:03:38;;;;;;;5.40;1.90;;;;;;;25.57;41.47;95546.28;4807821;29;20054;-66
2021/06/04 09:06:12;;;;;;;1.80;1.52;;;;;;;25.00;40.32;95547.69;4849224;29;20698;-65
2021/06/04 09:08:39;;;;;;;2.28;1.95;;;;;;;25.91;40.54;95554.81;4842559;29;20029;-66
2021/06/04 09:11:30;;;;;;;2.80;1.85;;;;;;;25.56;38.58;95544.66;4840831;29;20047;-66
2021/06/04 09:13:55;;;;;;;3.72;2.20;;;;;;;25.40;41.23;95539.41;4842624;29;20060;-65
2021/06/04 09:16:43;;;;;;;3.22;2.10;;;;;;;26.82;37.10;95549.47;4841976;29;20499;-65
2021/06/04 09:19:20;;;;;;;2.67;1.70;;;;;;;27.89;37.10;95543.53;4855881;29;20129;-66
2021/06/04 09:21:46;;;;;;;1.92;1.70;;;;;;;26.03;37.72;95547.53;4842335;29;20551;-64
2021/06/04 09:24:47;;;;;;;1.67;1.48;;;;;;;25.59;39.14;95536.19;4856175;29;20039;-67
2021/06/04 09:27:32;;;;;;;1.67;1.25;;;;;;;26.64;39.36;95543.50;4831523;29;20041;-66
2021/06/04 09:30:13;;;;;;;2.40;1.75;;;;;;;25.76;36.84;95545.91;4858619;29;20500;-66
2021/06/04 09:32:39;;;;;;;4.55;1.40;;;;;;;28.02;37.59;95545.66;4857911;29;20065;-71
2021/06/04 09:35:13;;;;;;;4.60;1.52;;;;;;;28.40;36.26;95534.50;4857124;29;20041;-68
2021/06/04 09:37:39;;;;;;;1.48;1.30;;;;;;;28.37;34.03;95532.38;4857305;29;20036;-68
2021/06/04 09:40:11;;;;;;;2.50;1.20;;;;;;;28.70;35.22;95531.84;4841432;29;20030;-66
2021/06/04 09:42:49;;;;;;;3.13;1.60;;;;;;;25.75;38.21;95539.03;4858692;29;20113;-66
2021/06/04 09:45:21;;;;;;;4.18;1.33;;;;;;;24.44;39.76;95528.31;4840392;29;20033;-66
2021/06/04 09:47:58;;;;;;;4.30;1.20;;;;;;;25.24;39.24;95535.78;4841820;29;20060;-65
2021/06/04 09:50:39;;;;;;;1.27;1.17;;;;;;;24.50;39.19;95531.84;4856835;29;20033;-68
2021/06/04 09:53:10;;;;;;;3.45;1.55;;;;;;;24.59;40.69;95531.19;4857359;29;20033;-67
2021/06/04 09:55:44;;;;;;;1.40;1.30;;;;;;;24.06;39.52;95530.88;4841559;29;20041;-66
2021/06/04 09:58:12;;;;;;;4.82;1.75;;;;;;;23.38;40.46;95533.59;4840055;29;20030;-65
2021/06/04 10:00:54;;;;;;;1.67;1.30;;;;;;;24.57;38.72;95521.88;4857873;29;20435;-65
2021/06/04 10:03:29;;;;;;;3.17;1.40;;;;;;;26.07;39.77;95523.91;4852549;29;20045;-65
2021/06/04 10:06:07;;;;;;;2.63;1.15;;;;;;;26.66;37.71;95522.78;4857014;29;20050;-66
2021/06/04 10:08:43;;;;;;;2.50;1.83;;;;;;;25.97;37.86;95519.31;4857613;29;20033;-67
2021/06/04 10:11:23;;;;;;;2.03;1.52;;;;;;;25.43;37.05;95515.03;4833818;29;20071;-67
2021/06/04 10:14:08;;;;;;;2.30;1.33;;;;;;;26.93;36.91;95513.91;4823661;29;20030;-66
2021/06/04 10:19:24;;;;;;;1.60;1.50;;;;;;;26.00;36.22;95507.38;4841799;29;20502;-65
2021/06/04 10:22:10;;;;;;;4.63;1.40;;;;;;;25.52;37.63;95508.28;4857821;29;20562;-66
2021/06/04 10:24:41;;;;;;;1.42;1.30;;;;;;;25.52;36.77;95510.91;4828558;29;20042;-66
2021/06/04 10:27:19;;;;;;;6.47;1.40;;;;;;;24.61;39.10;95521.16;4838019;29;20030;-66
2021/06/04 10:29:56;;;;;;;1.55;0.80;;;;;;;27.15;36.40;95518.00;4822380;29;20034;-66
2021/06/04 10:32:22;;;;;;;1.98;1.27;;;;;;;26.62;34.75;95516.34;4836731;29;20034;-67
2021/06/04 10:35:13;;;;;;;2.20;1.40;;;;;;;25.25;37.35;95513.50;4833086;29;20025;-67
2021/06/04 10:37:42;;;;;;;1.42;1.33;;;;;;;25.02;38.40;95511.09;4856165;29;20756;-66
2021/06/04 10:40:23;;;;;;;2.78;1.23;;;;;;;25.71;38.24;95514.03;4855994;29;20030;-65
2021/06/04 10:43:07;;;;;;;2.08;1.40;;;;;;;26.33;36.99;95509.78;4856885;29;20042;-65
2021/06/04 10:46:16;;;;;;;4.10;1.40;;;;;;;27.79;36.30;95515.00;4855986;29;20447;-67
2021/06/04 10:49:20;;;;;;;1.60;1.50;;;;;;;26.19;36.92;95511.28;4854828;29;20040;-68
2021/06/04 10:51:55;;;;;;;3.00;1.35;;;;;;;24.03;40.93;95523.41;4843037;29;20510;-67
2021/06/04 10:54:50;;;;;;;1.80;1.60;;;;;;;25.51;38.20;95511.97;4824527;29;20496;-67
2021/06/04 10:57:43;;;;;;;1.55;0.90;;;;;;;25.14;37.89;95515.22;4851232;29;20033;-68
2021/06/04 11:00:27;;;;;;;2.20;1.30;;;;;;;25.53;37.97;95509.84;4854290;29;20068;-69
2021/06/04 11:03:11;;;;;;;2.22;1.40;;;;;;;23.48;43.31;95510.00;4821395;29;20042;-68
2021/06/04 11:05:43;;;;;;;2.72;1.58;;;;;;;24.51;41.18;95502.47;4855970;29;20037;-69
2021/06/04 11:08:24;;;;;;;4.10;1.40;;;;;;;23.97;41.29;95498.72;4854690;29;20673;-68
2021/06/04 11:10:55;;;;;;;1.65;1.50;;;;;;;24.25;41.13;95503.13;4854504;29;20029;-68
2021/06/04 11:13:37;;;;;;;3.67;1.60;;;;;;;25.44;38.49;95490.09;4853063;29;20579;-67
2021/06/04 11:16:08;;;;;;;3.35;1.30;;;;;;;24.33;39.29;95484.19;4854557;29;20515;-68
2021/06/04 11:18:50;;;;;;;6.38;1.98;;;;;;;23.66;41.48;95499.25;4855016;29;20029;-68
2021/06/04 11:21:25;;;;;;;2.17;2.00;;;;;;;25.00;39.60;95489.34;4838625;29;20037;-68
2021/06/04 11:23:54;;;;;;;1.58;1.48;;;;;;;25.84;36.62;95485.22;4855102;29;20065;-69
2021/06/04 11:26:34;;;;;;;4.72;2.08;;;;;;;25.67;37.65;95482.69;4839775;29;20460;-69
2021/06/04 11:29:11;;;;;;;2.28;1.75;;;;;;;25.51;39.96;95474.81;4846102;29;20124;-68
2021/06/04 11:31:46;;;;;;;3.63;1.48;;;;;;;24.12;40.79;95476.97;4823922;29;20089;-69
2021/06/04 11:34:47;;;;;;;3.55;1.75;;;;;;;23.84;42.52;95474.38;4853628;29;20067;-67
2021/06/04 11:37:23;;;;;;;1.80;1.65;;;;;;;23.72;44.00;95473.66;4838436;29;20496;-67
2021/06/04 11:39:50;;;;;;;4.68;1.98;;;;;;;23.20;43.64;95471.13;4846570;29;20406;-69
2021/06/04 11:42:27;;;;;;;2.15;1.90;;;;;;;22.70;45.98;95476.22;4831645;29;20116;-69
2021/06/04 11:44:54;;;;;;;4.70;1.75;;;;;;;23.35;44.66;95460.03;4845629;29;20029;-68
2021/06/04 11:47:20;;;;;;;2.00;1.90;;;;;;;22.77;46.18;95471.59;4820095;29;20042;-69
2021/06/04 11:49:54;;;;;;;3.88;2.03;;;;;;;22.95;46.26;95470.66;4854192;29;20034;-67
2021/06/04 11:52:34;;;;;;;2.28;1.95;;;;;;;23.59;42.92;95454.41;4853610;29;20029;-69
2021/06/04 11:55:13;;;;;;;;;;;;;;;22.38;46.79;95459.91;4856386;29;20038;-70
2021/06/04 11:57:45;;;;;;;2.90;1.58;;;;;;;21.67;47.84;95456.66;4854243;29;19919;-70
2021/06/04 12:00:16;;;;;;;1.92;1.77;;;;;;;21.89;48.61;95457.75;4853282;29;20049;-67
2021/06/04 12:02:45;;;;;;;2.15;1.75;;;;;;;21.58;46.86;95453.53;4854338;29;20054;-69
2021/06/04 12:05:13;;;;;;;1.55;1.45;;;;;;;22.36;47.43;95455.91;4852474;29;20025;-70
2021/06/04 12:08:02;;;;;;;1.70;1.60;;;;;;;22.69;45.25;95450.84;4836249;29;20056;-70
2021/06/04 12:10:46;;;;;;;;;;;;;;;22.75;47.34;95451.75;4823634;29;20124;-71
2021/06/04 12:13:27;;;;;;;1.75;1.63;;;;;;;21.52;44.88;95447.34;4851264;29;20514;-69
2021/06/04 12:15:53;;;;;;;1.50;1.40;;;;;;;21.85;46.56;95453.94;4861177;29;20563;-70
2021/06/04 12:18:50;;;;;;;5.95;1.88;;;;;;;21.98;45.69;95465.09;4838422;29;20029;-67
2021/06/04 12:21:38;;;;;;;1.65;1.50;;;;;;;22.38;47.33;95459.91;4834384;29;20128;-70
2021/06/04 12:24:04;;;;;;;1.48;1.38;;;;;;;22.35;45.98;95454.28;4854534;29;20029;-68
2021/06/04 12:26:34;;;;;;;4.00;1.85;;;;;;;23.92;46.01;95452.84;4854044;29;20032;-68
2021/06/04 12:29:00;;;;;;;1.88;1.77;;;;;;;24.49;44.07;95446.28;4841947;29;20153;-69
2021/06/04 12:31:31;;;;;;;1.85;1.50;;;;;;;24.08;41.21;95444.84;4857806;29;20030;-70
2021/06/04 12:33:58;;;;;;;1.70;1.60;;;;;;;23.51;44.76;95441.56;4857081;29;20089;-71
2021/06/04 12:36:32;;;;;;;3.53;1.63;;;;;;;23.96;42.88;95443.34;4826917;29;20423;-71
2021/06/04 12:39:28;;;;;;;1.95;1.63;;;;;;;25.39;41.35;95437.00;4840423;29;20045;-71
2021/06/04 12:42:02;;;;;;;1.55;1.45;;;;;;;24.74;42.40;95442.34;4857907;29;20388;-69
2021/06/04 12:44:27;;;;;;;5.18;1.50;;;;;;;24.53;42.34;95436.00;4858288;29;20059;-69
2021/06/04 12:46:53;;;;;;;1.40;1.30;;;;;;;24.55;39.86;95431.25;4840039;29;20615;-70
2021/06/04 12:49:19;;;;;;;1.67;1.55;;;;;;;23.73;42.31;95430.31;4841769;29;20030;-69
2021/06/04 12:51:45;;;;;;;1.52;1.05;;;;;;;23.09;44.37;95435.78;4824761;29;20414;-71
2021/06/04 12:54:19;;;;;;;3.17;1.60;;;;;;;22.32;46.45;95441.56;4841801;29;20030;-68
2021/06/04 12:56:49;;;;;;;2.65;1.52;;;;;;;22.34;47.55;95436.88;4857455;29;20042;-68
2021/06/04 12:59:18;;;;;;;1.65;1.48;;;;;;;22.65;45.46;95443.59;4841113;29;20041;-68
2021/06/04 13:01:54;;;;;;;1.37;1.20;;;;;;;22.59;45.47;95437.41;4826157;29;20507;-68
2021/06/04 13:04:24;;;;;;;1.60;1.40;;;;;;;23.21;44.60;95438.38;4840005;29;20087;-67
2021/06/04 13:06:52;;;;;;;1.20;1.10;;;;;;;23.36;43.87;95430.72;4850539;29;20041;-66
2021/06/04 13:09:38;;;;;;;1.52;1.42;;;;;;;23.16;45.28;95438.28;4873469;29;20041;-69
2021/06/04 13:12:20;;;;;;;1.40;1.30;;;;;;;23.03;45.64;95427.97;4858668;29;20084;-70
2021/06/04 13:14:49;;;;;;;1.42;1.33;;;;;;;23.01;47.58;95435.34;4874588;29;20041;-69
2021/06/04 13:17:26;;;;;;;2.28;1.33;;;;;;;22.67;47.11;95431.78;4858200;29;20482;-69
2021/06/04 13:20:12;;;;;;;6.47;1.40;;;;;;;22.68;48.40;95437.84;4874236;29;20033;-69
2021/06/04 13:22:38;;;;;;;7.75;1.85;;;;;;;22.63;49.82;95435.91;4875225;29;20538;-70
2021/06/04 13:25:10;;;;;;;3.90;1.48;;;;;;;22.40;51.26;95439.38;4875890;29;20021;-70
2021/06/04 13:27:36;;;;;;;3.42;1.15;;;;;;;21.92;52.20;95447.56;4875586;29;20040;-68
2021/06/04 13:30:07;;;;;;;1.67;1.52;;;;;;;21.95;52.68;95441.00;4874413;29;20029;-67
2021/06/04 13:32:46;;;;;;;1.38;1.23;;;;;;;21.35;52.36;95443.72;4848577;29;20238;-67
2021/06/04 13:35:34;;;;;;;1.80;1.38;;;;;;;21.15;54.10;95442.44;4839074;29;20049;-66
2021/06/04 13:38:11;;;;;;;1.75;1.50;;;;;;;21.55;53.36;95444.25;4855457;29;20029;-66
2021/06/04 13:40:40;;;;;;;1.30;1.20;;;;;;;21.30;53.88;95440.19;4857168;29;20068;-67
2021/06/04 13:43:29;;;;;;;1.73;1.60;;;;;;;21.55;52.25;95443.44;4838932;29;20053;-66
2021/06/04 13:45:55;;;;;;;2.97;1.40;;;;;;;21.18;53.12;95450.69;4840604;29;20534;-69
2021/06/04 13:48:31;;;;;;;8.45;1.50;;;;;;;21.19;52.06;95439.09;4855460;29;20033;-68
2021/06/04 13:51:04;;;;;;;3.70;1.55;;;;;;;21.46;52.48;95442.16;4839315;29;20519;-66
2021/06/04 13:53:42;;;;;;;2.22;1.52;;;;;;;21.33;52.64;95445.81;4841177;29;20036;-69
2021/06/04 13:56:26;;;;;;;1.40;1.30;;;;;;;21.33;53.16;95445.81;4855440;29;20040;-70
2021/06/04 13:59:16;;;;;;;3.00;1.73;;;;;;;21.49;53.40;95441.72;4827276;29;20065;-68
2021/06/04 14:01:57;;;;;;;3.47;1.20;;;;;;;21.63;53.34;95435.22;4839047;29;20057;-70
2021/06/04 14:04:38;;;;;;;1.67;1.27;;;;;;;21.93;52.35;95443.88;4824581;29;20025;-70
2021/06/04 14:07:03;;;;;;;2.20;1.23;;;;;;;21.76;52.47;95444.75;4826353;29;20041;-72
2021/06/04 14:09:36;;;;;;;2.65;1.60;;;;;;;21.95;52.33;95441.81;4823826;29;20064;-68
2021/06/04 14:12:18;;;;;;;1.67;1.50;;;;;;;22.08;51.53;95443.44;4826599;29;20040;-70
2021/06/04 14:14:44;;;;;;;1.85;1.40;;;;;;;21.71;52.26;95442.78;4841343;29;20037;-70
2021/06/04 14:17:32;;;;;;;2.45;1.17;;;;;;;21.66;52.47;95447.13;4839704;29;20033;-67
2021/06/04 14:20:01;;;;;;;1.30;1.20;;;;;;;21.89;51.39;95439.28;4839983;29;20124;-70
2021/06/04 14:22:44;;;;;;;2.20;1.10;;;;;;;21.15;51.96;95437.16;4838693;29;20459;-66
2021/06/04 14:25:12;;;;;;;1.25;1.00;;;;;;;21.71;51.73;95410.31;4822998;29;20038;-70
2021/06/04 14:28:00;;;;;;;2.42;1.33;;;;;;;22.16;50.12;95440.44;4852139;29;20048;-69
2021/06/04 14:30:29;;;;;;;3.63;1.20;;;;;;;21.97;50.02;95436.31;4834865;29;20045;-66
2021/06/04 14:33:00;;;;;;;1.20;1.10;;;;;;;22.36;49.75;95424.22;4854725;29;20053;-70
2021/06/04 14:35:27;;;;;;;3.63;1.77;;;;;;;22.82;49.25;95424.16;4843003;29;20124;-69
2021/06/04 14:37:58;;;;;;;2.00;1.27;;;;;;;22.17;47.52;95426.22;4838131;29;20411;-69
2021/06/04 14:40:31;;;;;;;2.38;1.00;;;;;;;22.20;48.15;95420.47;4837388;29;20052;-66
2021/06/04 14:42:56;;;;;;;1.55;1.30;;;;;;;22.13;49.80;95422.41;4838024;29;20029;-70
2021/06/04 14:45:22;;;;;;;3.85;1.00;;;;;;;22.14;48.93;95424.03;4837071;29;20120;-67
2021/06/04 14:47:48;;;;;;;1.40;1.08;;;;;;;22.32;49.41;95418.59;4852184;29;20036;-68
2021/06/04 14:50:16;;;;;;;1.17;1.08;;;;;;;21.96;50.76;95421.53;4822442;29;20038;-69
2021/06/04 14:52:42;;;;;;;1.35;1.23;;;;;;;21.78;51.45;95422.38;4837710;29;20044;-69
2021/06/04 14:55:08;;;;;;;2.58;1.33;;;;;;;21.59;52.96;95417.44;4839032;29;20038;-69
2021/06/04 14:57:33;;;;;;;1.38;1.27;;;;;;;21.85;52.83;95422.28;4836684;29;20036;-70
2021/06/04 15:00:01;;;;;;;1.38;1.23;;;;;;;21.82;51.62;95422.75;4852322;29;20029;-69
2021/06/04 15:02:26;;;;;;;1.42;1.33;;;;;;;21.70;51.47;95428.00;4837542;29;20050;-69
2021/06/04 15:04:52;;;;;;;1.48;1.10;;;;;;;21.72;51.15;95425.13;4836863;29;20104;-69
2021/06/04 15:07:18;;;;;;;1.33;1.23;;;;;;;21.89;51.92;95419.00;4835949;29;20045;-67
2021/06/04 15:09:44;;;;;;;4.65;1.63;;;;;;;21.55;52.59;95425.78;4835130;29;20492;-70
2021/06/04 15:12:12;;;;;;;6.82;1.02;;;;;;;21.54;52.70;95418.13;4853348;29;20034;-70
2021/06/04 15:14:38;;;;;;;1.30;1.20;;;;;;;21.48;52.16;95416.41;4841405;29;20030;-69
2021/06/04 15:17:03;;;;;;;1.50;1.40;;;;;;;21.16;53.31;95418.47;4836153;29;20514;-69
2021/06/04 15:19:29;;;;;;;1.40;1.30;;;;;;;21.06;52.38;95415.56;4850401;29;20387;-69
2021/06/04 15:21:54;;;;;;;1.75;1.35;;;;;;;21.16;52.55;95421.09;4851381;29;20045;-70
2021/06/04 15:24:19;;;;;;;1.15;1.05;;;;;;;21.44;51.15;95405.50;4837674;29;20411;-69
2021/06/04 15:26:45;;;;;;;1.30;1.13;;;;;;;21.49;50.75;95410.06;4836451;29;20029;-66
2021/06/04 15:29:11;;;;;;;1.98;1.52;;;;;;;21.21;51.42;95409.91;4853462;29;20551;-69
2021/06/04 15:31:37;;;;;;;2.50;1.55;;;;;;;21.16;52.95;95407.94;4847465;29;20064;-67
2021/06/04 15:34:04;;;;;;;1.52;1.02;;;;;;;20.88;51.87;95408.50;4834697;29;20037;-70
2021/06/04 15:36:30;;;;;;;1.60;1.50;;;;;;;20.95;52.25;95405.78;4824963;29;20042;-69
2021/06/04 15:38:56;;;;;;;1.80;1.63;;;;;;;21.00;53.33;95411.16;4802362;29;20041;-68
2021/06/04 15:41:31;;;;;;;14.63;6.75;;;;;;;21.09;53.57;95412.50;4817112;29;20497;-66
2021/06/04 15:43:57;;;;;;;18.35;7.65;;;;;;;21.06;53.96;95406.84;4832483;29;20038;-68
2021/06/04 15:46:23;;;;;;;12.75;6.10;;;;;;;21.07;53.38;95413.72;4819183;29;20030;-67
2021/06/04 15:48:48;;;;;;;24.25;9.13;;;;;;;21.06;51.95;95415.56;4820029;29;20045;-68
2021/06/04 15:51:16;;;;;;;8.77;1.88;;;;;;;20.89;52.32;95404.84;4836710;29;20045;-68
2021/06/04 15:53:50;;;;;;;3.35;1.70;;;;;;;20.61;53.89;95409.06;4836728;29;20047;-67
2021/06/04 15:56:16;;;;;;;2.10;1.50;;;;;;;20.60;55.50;95418.78;4833811;29;20736;-67
2021/06/04 15:58:41;;;;;;;1.20;1.10;;;;;;;20.45;56.84;95419.16;4818048;29;20441;-68
2021/06/04 16:01:07;;;;;;;1.50;1.40;;;;;;;20.48;56.82;95416.06;4830934;29;20026;-67
2021/06/04 16:03:33;;;;;;;1.67;1.52;;;;;;;20.30;57.82;95418.72;4830518;29;20037;-67
2021/06/04 16:06:00;;;;;;;1.73;1.13;;;;;;;20.29;57.81;95416.31;4831349;29;20057;-68
2021/06/04 16:08:26;;;;;;;1.50;1.40;;;;;;;20.27;57.21;95413.91;4846316;29;20056;-68
2021/06/04 16:10:51;;;;;;;1.70;1.52;;;;;;;20.19;57.40;95422.06;4852380;29;20030;-69
2021/06/04 16:13:19;;;;;;;1.50;1.40;;;;;;;20.23;57.53;95414.50;4853276;29;21109;-69
2021/06/04 16:15:45;;;;;;;3.13;1.25;;;;;;;19.96;58.40;95417.44;4851606;29;20038;-70
2021/06/04 16:18:11;;;;;;;2.25;1.00;;;;;;;20.15;58.67;95418.25;4835636;29;20040;-69
2021/06/04 16:20:37;;;;;;;1.73;1.33;;;;;;;19.92;58.45;95416.25;4852642;29;20030;-68
2021/06/04 16:23:07;;;;;;;2.50;1.65;;;;;;;20.17;57.77;95418.84;4851950;29;20436;-69
2021/06/04 16:25:35;;;;;;;2.70;1.17;;;;;;;20.18;57.37;95420.44;4852578;29;20030;-69
2021/06/04 16:28:00;;;;;;;2.25;1.38;;;;;;;20.30;57.50;95423.19;4835524;29;20042;-69
2021/06/04 16:30:27;;;;;;;1.55;1.20;;;;;;;20.21;57.69;95414.75;4836771;29;20033;-69
2021/06/04 16:32:52;;;;;;;1.30;1.20;;;;;;;20.12;57.77;95421.31;4835481;29;20177;-70
2021/06/04 16:35:22;;;;;;;1.50;1.10;;;;;;;19.96;59.04;95414.00;4836678;29;20064;-70
2021/06/04 16:37:47;;;;;;;;;;;;;;;19.95;59.16;95426.34;4837333;29;20089;-70
2021/06/04 16:40:14;;;;;;;1.63;1.50;;;;;;;19.69;59.72;95423.13;4850735;29;19919;-70
2021/06/04 16:42:40;;;;;;;1.60;1.10;;;;;;;19.59;59.67;95425.44;4836691;29;20541;-70
2021/06/04 16:45:06;;;;;;;1.30;1.20;;;;;;;19.56;59.39;95433.75;4835558;29;20038;-69
2021/06/04 16:47:31;;;;;;;1.15;1.02;;;;;;;19.56;59.33;95428.50;4851803;29;20093;-69
2021/06/04 16:49:57;;;;;;;2.08;1.40;;;;;;;19.60;59.69;95429.69;4835766;29;20037;-69
2021/06/04 16:52:22;;;;;;;1.25;1.15;;;;;;;19.64;59.48;95430.88;4852745;29;20029;-69
2021/06/04 16:54:48;;;;;;;2.17;1.05;;;;;;;19.55;60.16;95429.53;4852719;29;20034;-69
2021/06/04 16:57:15;;;;;;;1.20;1.10;;;;;;;19.40;61.02;95424.56;4850687;29;20472;-70